Minneapolis, Minnesota
Traffic Map
Current Weather Conditions
Minneapolis, Minnesota
Clear
Clear
58°
Feels Like: 58°
Wind Chill: 58° Ceiling: Unl
Heat Index: 58° Visibility: 10mi
Dew Point: 55° Wind: 5mph
Humidity: 90% Direction: 80° (E)
Pressure: 30.03in Gusts: 0mph
Raw Report DataKMSP 290853Z 08004KT 10SM CLR 14/13 A3003 RMK AO2 SLP166 T01440128 56004
Traffic Incident Summary
Active as of:
Severity:
Category:
InformationThere was an issue retrieving the traffic information for this location. Please try a different location or try again shortly.
Advertisements
Track Severe Weather on mobile